Time;durP1;ratioP1;P1;durP2;ratioP2;P2;SDS_P1;SDS_P2;PMS_P1;PMS_P2;Temp;Humidity;BMP_temperature;BMP_pressure;BME280_temperature;BME280_humidity;BME280_pressure;Samples;Min_cycle;Max_cycle;Signal;HPM_P1;HPM_P2
2021/03/08 00:00:35;;;;;;;40.38;21.02;;;;;;;2.98;100.00;102322.28;5062302;28;20049;-63
2021/03/08 00:03:02;;;;;;;42.42;22.00;;;;;;;2.90;100.00;102321.66;5049065;28;20056;-63
2021/03/08 00:05:28;;;;;;;40.17;21.00;;;;;;;2.91;100.00;102320.75;5051867;28;20049;-63
2021/03/08 00:07:54;;;;;;;40.47;20.45;;;;;;;2.97;100.00;102320.53;5053805;28;20052;-63
2021/03/08 00:10:21;;;;;;;38.88;21.70;;;;;;;3.02;100.00;102318.63;5061768;28;20410;-63
2021/03/08 00:12:48;;;;;;;43.85;21.25;;;;;;;3.01;100.00;102316.00;5062870;28;20146;-63
2021/03/08 00:15:16;;;;;;;42.70;21.80;;;;;;;3.00;100.00;102319.59;5061723;28;20045;-63
2021/03/08 00:17:43;;;;;;;42.83;21.20;;;;;;;3.01;100.00;102316.00;5062683;28;20055;-63
2021/03/08 00:20:11;;;;;;;45.55;21.88;;;;;;;3.03;100.00;102317.66;5061887;28;20433;-63
2021/03/08 00:22:38;;;;;;;44.20;22.80;;;;;;;3.08;100.00;102315.75;5062461;28;20045;-63
2021/03/08 00:25:06;;;;;;;38.13;20.73;;;;;;;3.15;100.00;102319.94;5061660;28;20051;-63
2021/03/08 00:27:31;;;;;;;41.88;21.13;;;;;;;3.13;100.00;102323.56;5061869;28;20052;-63
2021/03/08 00:29:57;;;;;;;39.35;21.20;;;;;;;3.14;100.00;102326.16;5061293;28;20136;-64
2021/03/08 00:32:23;;;;;;;43.55;21.92;;;;;;;3.25;100.00;102324.94;5058253;28;20131;-62
2021/03/08 00:34:50;;;;;;;44.05;21.63;;;;;;;3.25;100.00;102319.63;5042755;28;20064;-63
2021/03/08 00:37:16;;;;;;;41.35;21.83;;;;;;;3.25;100.00;102314.28;5043107;28;20056;-63
2021/03/08 00:39:42;;;;;;;52.03;23.33;;;;;;;3.20;100.00;102322.44;5042813;28;20053;-63
2021/03/08 00:42:08;;;;;;;44.67;22.85;;;;;;;3.22;100.00;102319.72;5041663;28;20164;-64
2021/03/08 00:44:34;;;;;;;42.20;22.80;;;;;;;3.22;100.00;102320.59;5041305;28;20359;-63
2021/03/08 00:47:00;;;;;;;42.42;22.42;;;;;;;3.21;100.00;102318.88;5041884;28;20129;-62
2021/03/08 00:49:26;;;;;;;43.15;22.63;;;;;;;3.19;100.00;102314.50;5053071;28;20059;-63
2021/03/08 00:51:53;;;;;;;45.13;23.88;;;;;;;3.17;100.00;102305.72;5060178;28;20170;-63
2021/03/08 00:54:18;;;;;;;49.05;23.23;;;;;;;3.16;100.00;102312.81;5057967;28;20048;-63
2021/03/08 00:56:44;;;;;;;51.45;22.92;;;;;;;3.22;100.00;102309.09;5041886;28;20403;-62
2021/03/08 00:59:10;;;;;;;48.85;22.90;;;;;;;3.22;100.00;102314.41;5040920;28;20548;-63
2021/03/08 01:01:36;;;;;;;45.83;23.52;;;;;;;3.26;100.00;102316.03;5042102;28;20107;-62
2021/03/08 01:04:02;;;;;;;43.53;22.40;;;;;;;3.31;100.00;102311.41;5050081;28;20055;-63
2021/03/08 01:06:28;;;;;;;42.35;23.70;;;;;;;3.26;100.00;102306.25;5057410;28;20053;-64
2021/03/08 01:09:06;;;;;;;43.30;21.95;;;;;;;3.26;100.00;102303.59;5068280;22;20061;-63
2021/03/08 01:11:31;;;;;;;46.90;24.48;;;;;;;3.24;100.00;102307.22;5053869;28;20497;-63
2021/03/08 01:13:57;;;;;;;48.67;23.38;;;;;;;3.24;100.00;102293.91;5061397;28;20128;-62
2021/03/08 01:16:23;;;;;;;44.17;21.83;;;;;;;3.24;100.00;102289.50;5061858;28;20056;-63
2021/03/08 01:18:49;;;;;;;47.83;24.52;;;;;;;3.28;100.00;102291.13;5062198;28;20056;-64
2021/03/08 01:21:15;;;;;;;48.67;23.73;;;;;;;3.29;100.00;102290.19;5060469;28;20128;-63
2021/03/08 01:23:41;;;;;;;48.20;24.13;;;;;;;3.26;100.00;102279.66;5061607;28;20056;-63
2021/03/08 01:26:08;;;;;;;44.70;23.50;;;;;;;3.24;100.00;102286.81;5060865;28;20102;-63
2021/03/08 01:28:34;;;;;;;45.53;23.23;;;;;;;3.24;100.00;102269.97;5061644;28;20048;-64
2021/03/08 01:31:00;;;;;;;47.00;23.88;;;;;;;3.22;100.00;102271.84;5061687;28;20760;-63
2021/03/08 01:33:26;;;;;;;50.30;25.63;;;;;;;3.22;100.00;102266.50;5060886;28;20134;-63
2021/03/08 01:35:52;;;;;;;46.15;25.08;;;;;;;3.26;100.00;102261.03;5060080;28;20078;-62
2021/03/08 01:38:18;;;;;;;46.95;24.40;;;;;;;3.29;100.00;102274.22;5061426;28;20053;-63
2021/03/08 01:40:44;;;;;;;49.08;24.15;;;;;;;3.34;100.00;102266.06;5061880;28;20071;-64
2021/03/08 01:43:12;;;;;;;47.85;24.65;;;;;;;3.29;100.00;102268.03;5060374;28;20044;-63
2021/03/08 01:45:38;;;;;;;47.58;23.88;;;;;;;3.30;100.00;102259.13;5060094;28;20498;-63
2021/03/08 01:48:05;;;;;;;48.58;23.23;;;;;;;3.38;100.00;102267.69;5059948;28;20083;-63
2021/03/08 01:50:35;;;;;;;48.40;24.50;;;;;;;3.30;100.00;102260.00;5060880;28;20048;-63
2021/03/08 01:53:02;;;;;;;48.92;23.60;;;;;;;3.33;100.00;102259.03;5059385;28;20493;-63
2021/03/08 01:55:28;;;;;;;47.70;24.17;;;;;;;3.39;100.00;102258.78;5060416;28;20044;-63
2021/03/08 01:57:55;;;;;;;50.08;23.33;;;;;;;3.30;100.00;102253.81;5060925;28;20119;-63
2021/03/08 02:00:24;;;;;;;47.17;24.08;;;;;;;3.32;100.00;102259.94;5059637;28;20131;-62
2021/03/08 02:02:50;;;;;;;50.70;24.85;;;;;;;3.41;100.00;102253.41;5060966;28;20049;-62
2021/03/08 02:05:18;;;;;;;49.25;24.50;;;;;;;3.36;100.00;102256.25;5059221;28;20044;-63
2021/03/08 02:07:44;;;;;;;43.83;23.38;;;;;;;3.40;100.00;102249.00;5059997;28;20048;-63
2021/03/08 02:10:12;;;;;;;49.60;25.08;;;;;;;3.40;100.00;102246.34;5059907;28;20053;-62
2021/03/08 02:12:52;;;;;;;45.45;22.63;;;;;;;3.46;100.00;102243.47;5061005;28;20061;-63
2021/03/08 02:15:31;;;;;;;43.17;23.10;;;;;;;3.43;100.00;102244.47;5060895;28;20064;-63
2021/03/08 02:18:01;;;;;;;43.75;22.90;;;;;;;3.46;100.00;102239.03;5060097;28;20060;-63
2021/03/08 02:20:52;;;;;;;47.53;24.38;;;;;;;3.42;100.00;102248.03;5058898;28;20045;-63
2021/03/08 02:23:51;;;;;;;44.15;24.35;;;;;;;3.41;100.00;102235.66;5059086;28;20548;-63
2021/03/08 02:26:32;;;;;;;47.65;23.45;;;;;;;3.40;100.00;102230.38;5059279;28;20504;-63
2021/03/08 02:29:11;;;;;;;41.72;22.42;;;;;;;3.44;100.00;102237.34;5059469;28;20057;-63
2021/03/08 02:31:41;;;;;;;45.22;23.20;;;;;;;3.45;100.00;102225.78;5060081;28;20404;-63
2021/03/08 02:34:09;;;;;;;;;;;;;;;3.44;100.00;102227.53;5059886;28;20056;-64
2021/03/08 02:36:39;;;;;;;43.38;22.33;;;;;;;3.43;100.00;102228.50;5059546;28;20246;-64
2021/03/08 02:39:10;;;;;;;47.60;23.27;;;;;;;3.41;100.00;102230.31;5057782;28;20040;-62
2021/03/08 02:41:37;;;;;;;51.20;23.48;;;;;;;3.45;100.00;102221.31;5059436;28;20056;-64
2021/03/08 02:44:07;;;;;;;40.75;22.15;;;;;;;3.45;100.00;102218.66;5058527;28;20076;-63
2021/03/08 02:46:35;;;;;;;45.55;23.10;;;;;;;3.45;100.00;102229.28;5058897;28;20329;-62
2021/03/08 02:49:06;;;;;;;44.17;22.45;;;;;;;3.48;100.00;102221.19;5057949;28;20077;-63
2021/03/08 02:51:37;;;;;;;44.00;22.63;;;;;;;3.48;100.00;102215.00;5057216;28;20094;-63
2021/03/08 02:54:05;;;;;;;45.08;22.60;;;;;;;3.48;100.00;102220.34;5059628;28;20124;-63
2021/03/08 02:56:33;;;;;;;43.00;22.63;;;;;;;3.53;100.00;102217.50;5059305;28;20049;-62
2021/03/08 02:59:01;;;;;;;42.30;22.38;;;;;;;3.51;100.00;102215.75;5058669;28;20053;-63
2021/03/08 03:01:28;;;;;;;41.92;23.02;;;;;;;3.48;100.00;102215.00;5057082;28;20051;-63
2021/03/08 03:03:57;;;;;;;44.60;22.10;;;;;;;3.56;100.00;102223.56;5059299;28;20059;-63
2021/03/08 03:06:27;;;;;;;41.30;21.10;;;;;;;3.47;100.00;102214.13;5059442;28;20044;-62
2021/03/08 03:08:54;;;;;;;40.70;22.50;;;;;;;3.53;100.00;102217.50;5059200;28;20063;-63
2021/03/08 03:11:21;;;;;;;37.72;20.33;;;;;;;3.55;100.00;102221.84;5059238;28;20064;-63
2021/03/08 03:13:49;;;;;;;38.72;21.02;;;;;;;3.59;100.00;102222.59;5059033;28;20445;-62
2021/03/08 03:16:16;;;;;;;40.10;21.75;;;;;;;3.61;100.00;102220.75;5060056;28;20433;-63
2021/03/08 03:18:47;;;;;;;41.42;23.08;;;;;;;3.59;100.00;102217.25;5058468;28;20052;-62
2021/03/08 03:21:16;;;;;;;39.95;20.75;;;;;;;3.55;100.00;102216.53;5060191;28;20053;-63
2021/03/08 03:23:44;;;;;;;40.80;20.77;;;;;;;3.56;100.00;102212.06;5059397;28;20072;-62
2021/03/08 03:26:10;;;;;;;44.72;21.23;;;;;;;3.51;100.00;102209.56;5057691;28;20413;-63
2021/03/08 03:28:36;;;;;;;47.22;22.52;;;;;;;3.49;100.00;102217.63;5059623;28;20056;-62
2021/03/08 03:31:03;;;;;;;43.80;22.58;;;;;;;3.49;100.00;102211.44;5059262;28;20048;-63
2021/03/08 03:33:31;;;;;;;40.85;22.00;;;;;;;3.44;100.00;102208.91;5060527;28;20174;-62
2021/03/08 03:35:58;;;;;;;49.83;23.08;;;;;;;3.41;100.00;102211.69;5060411;22;20117;-62
2021/03/08 03:38:24;;;;;;;41.17;23.52;;;;;;;3.43;100.00;102212.53;5054339;28;20045;-63
2021/03/08 03:40:51;;;;;;;42.88;21.83;;;;;;;3.45;100.00;102208.00;5039791;28;20052;-63
2021/03/08 03:43:18;;;;;;;38.65;21.70;;;;;;;3.43;100.00;102208.97;5055482;28;20047;-63
2021/03/08 03:45:44;;;;;;;42.97;23.08;;;;;;;3.40;100.00;102207.31;5040509;28;20057;-62
2021/03/08 03:48:11;;;;;;;43.63;21.88;;;;;;;3.42;100.00;102213.44;5038645;28;20048;-63
2021/03/08 03:50:37;;;;;;;40.55;22.55;;;;;;;3.44;100.00;102214.25;5040852;28;20053;-62
2021/03/08 03:53:04;;;;;;;43.63;22.42;;;;;;;3.40;100.00;102217.97;5038091;28;20053;-63
2021/03/08 03:55:30;;;;;;;44.08;22.95;;;;;;;3.45;100.00;102215.97;5040281;28;20065;-62
2021/03/08 03:58:10;;;;;;;43.53;23.13;;;;;;;3.51;100.00;102214.91;5038137;28;20179;-63
2021/03/08 04:00:41;;;;;;;47.42;22.40;;;;;;;3.51;100.00;102221.06;5039120;28;20056;-62
2021/03/08 04:03:10;;;;;;;39.97;22.65;;;;;;;3.56;100.00;102222.69;5039824;28;20125;-64
2021/03/08 04:05:38;;;;;;;44.47;21.92;;;;;;;3.58;100.00;102218.19;5040179;28;20385;-63
2021/03/08 04:08:05;;;;;;;40.95;22.52;;;;;;;3.63;100.00;102224.22;5038855;28;20071;-63
2021/03/08 04:10:33;;;;;;;42.67;23.13;;;;;;;3.61;100.00;102226.06;5053049;28;20114;-64
2021/03/08 04:13:03;;;;;;;43.63;23.17;;;;;;;3.59;100.00;102227.91;5059361;28;20052;-63
2021/03/08 04:15:32;;;;;;;45.65;23.23;;;;;;;3.58;100.00;102226.16;5039099;28;20056;-64
2021/03/08 04:18:00;;;;;;;41.47;22.38;;;;;;;3.64;100.00;102231.28;5039660;28;20506;-64
2021/03/08 04:20:28;;;;;;;44.35;23.40;;;;;;;3.60;100.00;102229.66;5039243;28;20045;-64
2021/03/08 04:22:57;;;;;;;40.75;22.00;;;;;;;3.62;100.00;102231.34;5041700;28;20046;-64
2021/03/08 04:25:24;;;;;;;41.03;22.80;;;;;;;3.66;100.00;102230.28;5042465;28;20052;-63
2021/03/08 04:27:52;;;;;;;45.65;21.52;;;;;;;3.68;100.00;102228.44;5041544;28;20483;-63
2021/03/08 04:30:20;;;;;;;43.80;22.00;;;;;;;3.63;100.00;102234.88;5061323;28;20075;-62
2021/03/08 04:32:50;;;;;;;44.65;22.45;;;;;;;3.62;100.00;102239.34;5057922;28;20048;-62
2021/03/08 04:35:18;;;;;;;41.13;21.20;;;;;;;3.66;100.00;102234.75;5040882;28;20046;-63
2021/03/08 04:37:45;;;;;;;38.13;21.17;;;;;;;3.67;100.00;102245.34;5042930;28;20418;-64
2021/03/08 04:40:14;;;;;;;40.13;20.83;;;;;;;3.72;100.00;102241.63;5042877;28;20061;-63
2021/03/08 04:42:41;;;;;;;46.15;22.33;;;;;;;3.67;100.00;102241.81;5051871;28;20044;-63
2021/03/08 04:45:09;;;;;;;41.13;20.73;;;;;;;3.75;100.00;102245.03;5041878;28;20053;-64
2021/03/08 04:47:37;;;;;;;43.15;22.05;;;;;;;3.77;100.00;102239.66;5042427;28;20042;-63
2021/03/08 04:50:07;;;;;;;44.70;22.90;;;;;;;3.75;100.00;102244.19;5041399;28;20071;-62
2021/03/08 04:52:34;;;;;;;43.95;22.35;;;;;;;3.74;100.00;102243.31;5040651;28;20056;-64
2021/03/08 04:55:00;;;;;;;44.72;22.13;;;;;;;3.71;100.00;102251.44;5042479;28;20057;-63
2021/03/08 04:57:26;;;;;;;39.85;21.90;;;;;;;3.74;100.00;102247.75;5041077;28;20478;-63
2021/03/08 04:59:53;;;;;;;46.22;23.10;;;;;;;3.72;100.00;102247.81;5042129;28;20053;-64
2021/03/08 05:02:22;;;;;;;42.85;22.27;;;;;;;3.76;100.00;102248.59;5041236;28;20096;-64
2021/03/08 05:04:51;;;;;;;46.97;23.30;;;;;;;3.70;100.00;102257.69;5042810;28;20080;-64
2021/03/08 05:07:21;;;;;;;41.65;22.25;;;;;;;3.75;100.00;102250.38;5041622;28;20068;-63
2021/03/08 05:09:49;;;;;;;44.17;22.58;;;;;;;3.74;100.00;102248.66;5051386;28;20126;-64
2021/03/08 05:12:16;;;;;;;41.95;22.83;;;;;;;3.77;100.00;102245.88;5041843;28;20516;-62
2021/03/08 05:14:43;;;;;;;39.97;21.25;;;;;;;3.76;100.00;102249.44;5042451;28;20041;-64
2021/03/08 05:17:11;;;;;;;40.00;22.55;;;;;;;3.84;100.00;102251.81;5041839;28;20053;-62
2021/03/08 05:19:41;;;;;;;42.85;22.52;;;;;;;3.80;100.00;102252.88;5048300;28;20046;-63
2021/03/08 05:22:09;;;;;;;39.58;21.15;;;;;;;3.80;100.00;102250.22;5040854;28;20053;-63
2021/03/08 05:24:36;;;;;;;41.70;22.67;;;;;;;3.79;100.00;102252.00;5042889;28;20049;-63
2021/03/08 05:27:08;;;;;;;45.25;22.77;;;;;;;3.82;100.00;102251.03;5040542;28;20049;-62
2021/03/08 05:29:36;;;;;;;40.72;23.20;;;;;;;3.81;100.00;102252.81;5058622;28;20537;-62
2021/03/08 05:32:06;;;;;;;40.83;21.90;;;;;;;3.86;100.00;102253.50;5041504;28;20149;-64
2021/03/08 05:34:34;;;;;;;38.50;21.38;;;;;;;3.85;100.00;102246.44;5041558;28;20061;-63
2021/03/08 05:37:00;;;;;;;40.90;21.60;;;;;;;3.89;100.00;102251.63;5050160;28;20405;-63
2021/03/08 05:39:28;;;;;;;44.13;21.58;;;;;;;3.87;100.00;102254.38;5053318;28;20072;-63
2021/03/08 05:42:02;;;;;;;42.75;22.60;;;;;;;3.90;100.00;102261.38;5061558;28;20057;-63
2021/03/08 05:44:31;;;;;;;39.10;20.88;;;;;;;3.96;100.00;102258.47;5059090;28;20053;-62
2021/03/08 05:47:23;;;;;;;44.13;21.55;;;;;;;3.87;100.00;102249.03;5040779;28;20045;-62
2021/03/08 05:50:27;;;;;;;41.90;22.73;;;;;;;3.88;100.00;102255.25;5040173;28;20044;-63
2021/03/08 05:53:36;;;;;;;45.83;23.35;;;;;;;3.84;100.00;102249.16;5031242;28;20057;-64
2021/03/08 05:56:17;;;;;;;40.92;21.58;;;;;;;3.96;100.00;102258.47;5038425;28;20055;-63
2021/03/08 05:59:06;;;;;;;40.95;21.73;;;;;;;3.91;100.00;102265.78;5046951;28;20061;-63
2021/03/08 06:01:52;;;;;;;42.83;21.77;;;;;;;3.85;100.00;102267.75;5048628;28;20045;-63
2021/03/08 06:04:26;;;;;;;45.78;22.15;;;;;;;3.87;100.00;102265.00;5042809;28;20080;-63
2021/03/08 06:07:35;;;;;;;40.80;22.95;;;;;;;3.89;100.00;102268.50;5046610;28;20048;-64
2021/03/08 06:10:05;;;;;;;41.17;23.33;;;;;;;3.92;100.00;102272.84;5049569;28;20055;-63
2021/03/08 06:12:35;;;;;;;42.88;22.50;;;;;;;3.93;100.00;102263.91;5061338;28;20162;-64
2021/03/08 06:15:03;;;;;;;43.45;22.90;;;;;;;3.99;100.00;102263.69;5045305;28;20057;-63
2021/03/08 06:17:30;;;;;;;42.10;20.77;;;;;;;4.04;100.00;102272.38;5040979;28;20053;-63
2021/03/08 06:19:57;;;;;;;41.78;22.17;;;;;;;4.04;100.00;102272.38;5040981;28;20041;-64
2021/03/08 06:22:25;;;;;;;41.50;22.42;;;;;;;4.01;100.00;102280.50;5040066;28;20060;-64
2021/03/08 06:24:52;;;;;;;46.03;24.63;;;;;;;3.97;100.00;102282.38;5041509;28;20050;-64
2021/03/08 06:27:21;;;;;;;43.38;23.23;;;;;;;4.03;100.00;102270.63;5039208;28;20053;-62
2021/03/08 06:29:48;;;;;;;42.97;23.70;;;;;;;4.01;100.00;102272.50;5041365;28;20135;-63
2021/03/08 06:32:14;;;;;;;46.15;24.55;;;;;;;3.98;100.00;102267.28;5040721;28;20414;-64
2021/03/08 06:34:41;;;;;;;48.45;24.35;;;;;;;4.09;100.00;102280.19;5040774;28;20049;-64
2021/03/08 06:37:08;;;;;;;46.70;24.85;;;;;;;4.13;100.00;102279.16;5039571;28;20049;-63
2021/03/08 06:39:35;;;;;;;46.25;25.00;;;;;;;4.20;100.00;102281.50;5040332;28;20056;-63
2021/03/08 06:42:01;;;;;;;47.60;25.13;;;;;;;4.08;100.00;102283.78;5039023;28;20053;-63
2021/03/08 06:44:28;;;;;;;48.42;25.35;;;;;;;4.01;100.00;102283.16;5048847;28;20052;-63
2021/03/08 06:46:55;;;;;;;49.13;24.17;;;;;;;4.04;100.00;102275.03;5039919;28;20046;-63
2021/03/08 06:49:21;;;;;;;51.35;25.70;;;;;;;4.09;100.00;102281.03;5039665;28;20045;-62
2021/03/08 06:52:04;;;;;;;42.88;23.42;;;;;;;4.16;100.00;102282.56;5040300;28;20060;-62
2021/03/08 06:54:32;;;;;;;49.33;24.15;;;;;;;4.18;100.00;102291.38;5040518;28;20049;-63
2021/03/08 06:56:58;;;;;;;46.80;24.58;;;;;;;4.24;100.00;102284.06;5039691;28;20583;-64
2021/03/08 06:59:24;;;;;;;50.30;25.73;;;;;;;4.25;100.00;102291.13;5043564;28;20050;-62
2021/03/08 07:01:51;;;;;;;51.97;25.50;;;;;;;4.27;100.00;102291.94;5045895;28;20123;-63
2021/03/08 07:04:20;;;;;;;50.65;25.15;;;;;;;4.23;100.00;102290.34;5043052;28;20061;-64
2021/03/08 07:07:03;;;;;;;46.63;25.00;;;;;;;4.21;100.00;102296.59;5060199;28;20083;-63
2021/03/08 07:09:30;;;;;;;50.78;24.98;;;;;;;4.18;100.00;102302.03;5047617;28;20041;-63
2021/03/08 07:15:02;;;;;;;49.92;25.55;;;;;;;4.23;100.00;102298.34;5057924;23;20040;-63
2021/03/08 07:17:32;;;;;;;52.08;26.00;;;;;;;4.28;100.00;102296.34;5057398;28;20040;-64
2021/03/08 07:20:01;;;;;;;51.67;25.42;;;;;;;4.24;100.00;102303.59;5059488;28;20053;-64
2021/03/08 07:22:38;;;;;;;49.55;24.88;;;;;;;4.29;100.00;102300.75;5056965;28;20634;-64
2021/03/08 07:25:06;;;;;;;46.08;24.95;;;;;;;4.32;100.00;102303.28;5057705;28;20045;-63
2021/03/08 07:27:42;;;;;;;47.80;24.60;;;;;;;4.34;100.00;102309.41;5057874;28;20488;-64
2021/03/08 07:30:10;;;;;;;48.95;26.27;;;;;;;4.38;100.00;102309.22;5058344;28;20052;-64
2021/03/08 07:32:38;;;;;;;46.75;25.58;;;;;;;4.35;100.00;102303.16;5056906;28;20045;-63
2021/03/08 07:35:07;;;;;;;47.88;25.42;;;;;;;4.41;100.00;102305.59;5057730;28;20053;-64
2021/03/08 07:37:43;;;;;;;48.45;24.65;;;;;;;4.30;100.00;102310.47;5055212;28;20106;-63
2021/03/08 07:40:20;;;;;;;49.10;25.45;;;;;;;4.36;100.00;102311.09;5057122;28;20566;-63
2021/03/08 07:42:46;;;;;;;49.35;25.33;;;;;;;4.46;100.00;102310.72;5056124;28;20049;-64
2021/03/08 07:45:13;;;;;;;47.70;25.05;;;;;;;4.55;100.00;102313.91;5056807;28;20072;-66
2021/03/08 07:47:39;;;;;;;51.47;25.75;;;;;;;4.43;100.00;102311.75;5057801;28;20059;-63
2021/03/08 07:50:24;;;;;;;52.22;26.63;;;;;;;4.41;100.00;102316.25;5058649;28;20056;-64
2021/03/08 07:52:49;;;;;;;48.90;25.30;;;;;;;4.51;100.00;102316.75;5059462;28;20053;-63
2021/03/08 07:55:15;;;;;;;50.20;25.30;;;;;;;4.56;100.00;102318.31;5056022;28;20049;-63
2021/03/08 07:57:42;;;;;;;50.28;25.83;;;;;;;4.63;100.00;102329.59;5058881;28;20083;-63
2021/03/08 08:00:09;;;;;;;47.25;26.08;;;;;;;4.49;100.00;102327.50;5058482;28;20479;-63
2021/03/08 08:02:36;;;;;;;54.50;24.73;;;;;;;4.52;100.00;102326.47;5060720;28;20056;-63
2021/03/08 08:05:03;;;;;;;48.78;26.25;;;;;;;4.44;100.00;102326.78;5059875;28;20056;-63
2021/03/08 08:07:31;;;;;;;51.40;26.55;;;;;;;4.53;100.00;102338.88;5061759;28;20106;-63
2021/03/08 08:10:02;;;;;;;58.70;27.08;;;;;;;4.55;100.00;102334.38;5059119;28;20440;-63
2021/03/08 08:12:33;;;;;;;50.20;27.33;;;;;;;4.44;100.00;102339.25;5060684;28;20052;-63
2021/03/08 08:15:00;;;;;;;52.03;25.33;;;;;;;4.39;100.00;102331.44;5061591;28;20072;-62
2021/03/08 08:17:29;;;;;;;52.22;26.85;;;;;;;4.45;100.00;102335.69;5061809;28;20493;-63
2021/03/08 08:19:56;;;;;;;54.70;26.67;;;;;;;4.62;100.00;102337.66;5063475;28;20067;-64
2021/03/08 08:22:23;;;;;;;52.65;26.80;;;;;;;4.54;100.00;102341.50;5059652;28;20057;-63
2021/03/08 08:24:53;;;;;;;51.50;26.23;;;;;;;4.54;100.00;102338.84;5059695;28;20045;-65
2021/03/08 08:27:20;;;;;;;51.58;25.60;;;;;;;4.46;100.00;102335.63;5060867;28;20401;-63
2021/03/08 08:29:49;;;;;;;52.00;26.88;;;;;;;4.54;100.00;102346.81;5063795;28;20044;-64
2021/03/08 08:32:16;;;;;;;51.83;25.88;;;;;;;4.67;100.00;102343.69;5061216;28;20052;-63
2021/03/08 08:34:43;;;;;;;53.55;27.83;;;;;;;4.65;100.00;102340.19;5061142;28;20059;-64
2021/03/08 08:37:13;;;;;;;52.70;27.10;;;;;;;4.61;100.00;102341.25;5059947;28;20052;-63
2021/03/08 08:39:40;;;;;;;50.88;25.95;;;;;;;4.59;100.00;102346.66;5063021;28;20550;-65
2021/03/08 08:42:17;;;;;;;56.13;26.45;;;;;;;4.56;100.00;102339.66;5061221;28;20099;-64
2021/03/08 08:44:45;;;;;;;50.35;25.90;;;;;;;4.48;100.00;102331.06;5061405;28;20053;-64
2021/03/08 08:47:30;;;;;;;56.83;27.08;;;;;;;4.52;100.00;102332.69;5058325;28;20056;-63
2021/03/08 08:49:58;;;;;;;49.78;24.55;;;;;;;4.69;100.00;102328.50;5061103;28;20052;-63
2021/03/08 08:52:52;;;;;;;52.35;26.40;;;;;;;4.76;100.00;102329.97;5060875;28;20044;-63
2021/03/08 08:55:21;;;;;;;54.63;26.90;;;;;;;4.63;100.00;102326.94;5029566;28;20044;-63
2021/03/08 08:58:29;;;;;;;51.53;26.95;;;;;;;4.74;100.00;102326.50;5061679;28;20060;-65
2021/03/08 09:01:39;;;;;;;51.83;25.45;;;;;;;4.77;100.00;102331.72;5058515;28;20432;-63
2021/03/08 09:04:07;;;;;;;47.83;25.52;;;;;;;4.77;100.00;102329.06;5060313;28;20143;-65
2021/03/08 09:06:50;;;;;;;53.25;26.27;;;;;;;4.94;100.00;102328.34;5062605;28;20403;-63
2021/03/08 09:09:19;;;;;;;52.58;25.40;;;;;;;4.82;100.00;102324.38;5060550;28;20063;-63
2021/03/08 09:11:47;;;;;;;45.83;25.35;;;;;;;4.93;100.00;102323.06;5059481;28;20226;-63
2021/03/08 09:14:34;;;;;;;47.87;25.00;;;;;;;5.03;100.00;102321.75;5060371;28;20085;-63
2021/03/08 09:17:21;;;;;;;53.92;26.55;;;;;;;4.85;100.00;102318.94;5059547;28;20099;-63
2021/03/08 09:19:50;;;;;;;50.17;25.88;;;;;;;5.07;100.00;102329.56;5056368;28;20056;-63
2021/03/08 09:22:34;;;;;;;53.55;25.38;;;;;;;5.17;100.00;102323.88;5060150;28;20064;-63
2021/03/08 09:25:01;;;;;;;44.67;22.65;;;;;;;5.23;100.00;102313.78;5060874;28;20052;-63
2021/03/08 09:27:29;;;;;;;41.45;23.92;;;;;;;5.23;100.00;102324.47;5060682;28;20041;-63
2021/03/08 09:30:05;;;;;;;50.95;24.83;;;;;;;5.43;100.00;102325.41;5058654;28;20070;-65
2021/03/08 09:32:31;;;;;;;41.75;23.73;;;;;;;5.45;100.00;102318.22;5058139;28;20044;-63
2021/03/08 09:37:50;;;;;;;44.00;24.23;;;;;;;5.44;100.00;102321.81;4980946;23;20061;-63
2021/03/08 10:27:18;;;;;;;38.88;19.75;;;;;;;6.21;100.00;102329.06;5075107;22;20340;-63
2021/03/08 10:29:44;;;;;;;36.75;19.58;;;;;;;6.27;100.00;102327.91;5060160;28;20052;-63
2021/03/08 10:32:12;;;;;;;39.50;19.80;;;;;;;6.23;100.00;102321.84;5058366;28;20057;-64
2021/03/08 10:34:40;;;;;;;31.10;17.80;;;;;;;6.49;100.00;102330.44;5060468;28;20063;-63
2021/03/08 10:37:07;;;;;;;34.30;18.52;;;;;;;6.46;100.00;102333.25;5056558;28;20040;-63
2021/03/08 10:42:26;;;;;;;32.65;19.13;;;;;;;6.64;100.00;102327.03;5071274;22;20048;-65
2021/03/08 10:44:52;;;;;;;30.55;18.63;;;;;;;6.72;100.00;102326.66;5060809;28;20053;-63
2021/03/08 10:47:19;;;;;;;35.60;18.90;;;;;;;7.02;100.00;102326.06;5059703;28;20481;-62
2021/03/08 10:49:50;;;;;;;32.00;18.67;;;;;;;7.33;99.44;102330.75;5059936;28;20055;-65
2021/03/08 10:52:16;;;;;;;34.45;18.40;;;;;;;7.26;96.95;102317.72;5060108;28;20056;-63
2021/03/08 10:58:12;;;;;;;33.63;18.92;;;;;;;7.56;94.44;102325.16;4980541;28;20535;-64
2021/03/08 11:00:40;;;;;;;29.42;17.15;;;;;;;7.78;94.16;102324.88;4982735;28;20043;-63
2021/03/08 11:03:27;;;;;;;30.00;17.97;;;;;;;7.89;94.21;102325.16;4981129;28;20054;-63
2021/03/08 11:06:03;;;;;;;31.60;17.92;;;;;;;7.97;92.53;102314.88;4981064;28;20424;-64
2021/03/08 11:08:29;;;;;;;33.33;18.50;;;;;;;7.89;92.83;102322.47;4982975;28;20074;-63
2021/03/08 11:10:54;;;;;;;29.77;18.77;;;;;;;8.02;94.24;102312.84;4982429;28;20152;-63
2021/03/08 11:13:31;;;;;;;35.95;19.45;;;;;;;7.91;93.08;102323.28;4977067;28;20058;-63
2021/03/08 11:16:05;;;;;;;36.05;19.65;;;;;;;7.93;93.27;102317.81;4980990;28;20684;-63
2021/03/08 11:18:31;;;;;;;32.60;18.10;;;;;;;8.09;93.02;102312.50;4981992;28;20496;-62
2021/03/08 11:21:18;;;;;;;32.33;19.30;;;;;;;7.98;92.72;102315.75;4981392;28;20141;-64
2021/03/08 11:23:44;;;;;;;34.25;18.77;;;;;;;8.17;91.62;102304.88;4974889;28;20101;-63
2021/03/08 11:26:10;;;;;;;34.03;19.00;;;;;;;8.11;92.55;102313.25;4979906;28;20098;-64
2021/03/08 11:28:39;;;;;;;31.67;18.70;;;;;;;8.16;93.09;102303.16;4979654;28;20050;-63
2021/03/08 11:31:06;;;;;;;32.22;19.77;;;;;;;7.88;94.61;102307.34;4980163;28;20058;-65
2021/03/08 11:33:36;;;;;;;31.40;19.20;;;;;;;8.25;92.24;102302.66;4981537;28;20055;-64
2021/03/08 11:36:02;;;;;;;37.50;19.55;;;;;;;8.17;89.88;102299.50;4981374;28;20491;-63
2021/03/08 11:38:28;;;;;;;34.17;19.60;;;;;;;7.68;93.46;102305.72;4979133;28;20077;-63
2021/03/08 11:40:55;;;;;;;32.70;18.90;;;;;;;7.84;94.20;102301.28;4978137;28;20058;-63
2021/03/08 11:43:23;;;;;;;31.17;18.13;;;;;;;7.86;92.72;102298.50;4977806;28;20046;-63
2021/03/08 11:45:51;;;;;;;33.42;19.02;;;;;;;7.65;92.43;102304.06;4980016;28;20054;-63
2021/03/08 11:48:19;;;;;;;34.55;19.58;;;;;;;7.94;92.22;102290.94;4978479;28;20089;-64
2021/03/08 11:50:45;;;;;;;35.97;19.17;;;;;;;7.89;93.30;102290.31;4979985;28;20407;-63
2021/03/08 11:53:13;;;;;;;33.13;19.90;;;;;;;7.99;91.61;102286.16;4980372;28;20310;-65
2021/03/08 11:55:39;;;;;;;31.55;18.08;;;;;;;7.84;93.60;102287.03;4978784;28;20061;-64
2021/03/08 11:58:05;;;;;;;34.15;17.77;;;;;;;8.02;92.86;102288.72;4978568;28;20054;-63
2021/03/08 12:00:32;;;;;;;33.35;18.00;;;;;;;7.96;91.11;102280.13;4981179;28;20081;-64
2021/03/08 12:02:59;;;;;;;35.15;19.77;;;;;;;8.19;93.45;102281.53;4981122;28;20039;-63
2021/03/08 12:05:25;;;;;;;31.65;18.73;;;;;;;8.01;92.89;102276.25;4980016;28;20042;-63
2021/03/08 12:07:51;;;;;;;32.30;17.27;;;;;;;8.21;90.80;102275.13;4980510;28;20121;-65
2021/03/08 12:10:17;;;;;;;31.10;18.13;;;;;;;8.53;90.21;102269.78;4978171;28;20057;-65
2021/03/08 12:12:43;;;;;;;32.58;17.13;;;;;;;8.63;90.60;102270.13;4980479;28;20058;-65
2021/03/08 12:15:11;;;;;;;32.20;19.35;;;;;;;8.67;88.16;102277.06;4977849;28;20055;-65
2021/03/08 12:17:38;;;;;;;29.50;18.50;;;;;;;8.56;90.51;102266.06;4980985;28;20569;-64
2021/03/08 12:20:07;;;;;;;31.80;18.42;;;;;;;8.62;89.50;102272.91;4980428;28;20050;-64
2021/03/08 12:22:34;;;;;;;;;;;;;;;8.45;91.48;102273.84;4978081;28;20043;-64